sensor_id;sensor_type;location;lat;lon;timestamp;P1;durP1;ratioP1;P2;durP2;ratioP2
8819;SDS011;4446;50.876;4.736;2023-08-06T00:01:56;4.15;;;1.85;;
8819;SDS011;4446;50.876;4.736;2023-08-06T00:04:23;2.63;;;1.45;;
8819;SDS011;4446;50.876;4.736;2023-08-06T00:06:50;1.98;;;1.33;;
8819;SDS011;4446;50.876;4.736;2023-08-06T00:09:17;1.42;;;1.33;;
8819;SDS011;4446;50.876;4.736;2023-08-06T00:11:44;2.13;;;1.20;;
8819;SDS011;4446;50.876;4.736;2023-08-06T00:14:12;1.75;;;1.65;;
8819;SDS011;4446;50.876;4.736;2023-08-06T00:16:42;1.52;;;1.30;;
8819;SDS011;4446;50.876;4.736;2023-08-06T00:19:09;2.80;;;1.30;;
8819;SDS011;4446;50.876;4.736;2023-08-06T00:21:37;1.35;;;1.23;;
8819;SDS011;4446;50.876;4.736;2023-08-06T00:24:04;1.85;;;1.38;;
8819;SDS011;4446;50.876;4.736;2023-08-06T00:26:31;2.10;;;1.33;;
8819;SDS011;4446;50.876;4.736;2023-08-06T00:28:58;1.85;;;1.35;;
8819;SDS011;4446;50.876;4.736;2023-08-06T00:31:25;1.35;;;1.25;;
8819;SDS011;4446;50.876;4.736;2023-08-06T00:33:53;1.50;;;1.40;;
8819;SDS011;4446;50.876;4.736;2023-08-06T00:36:20;1.65;;;1.55;;
8819;SDS011;4446;50.876;4.736;2023-08-06T00:38:47;2.42;;;1.38;;
8819;SDS011;4446;50.876;4.736;2023-08-06T00:41:14;1.85;;;1.30;;
8819;SDS011;4446;50.876;4.736;2023-08-06T00:43:41;2.15;;;1.85;;
8819;SDS011;4446;50.876;4.736;2023-08-06T00:46:08;2.78;;;1.42;;
8819;SDS011;4446;50.876;4.736;2023-08-06T00:48:36;2.75;;;1.63;;
8819;SDS011;4446;50.876;4.736;2023-08-06T00:51:04;1.60;;;1.33;;
8819;SDS011;4446;50.876;4.736;2023-08-06T00:53:32;2.00;;;1.30;;
8819;SDS011;4446;50.876;4.736;2023-08-06T00:55:59;3.22;;;1.67;;
8819;SDS011;4446;50.876;4.736;2023-08-06T00:58:26;2.33;;;1.73;;
8819;SDS011;4446;50.876;4.736;2023-08-06T01:00:54;1.83;;;1.70;;
8819;SDS011;4446;50.876;4.736;2023-08-06T01:03:21;3.10;;;2.05;;
8819;SDS011;4446;50.876;4.736;2023-08-06T01:05:48;2.00;;;1.80;;
8819;SDS011;4446;50.876;4.736;2023-08-06T01:08:19;1.80;;;1.70;;
8819;SDS011;4446;50.876;4.736;2023-08-06T01:10:58;1.70;;;1.60;;
8819;SDS011;4446;50.876;4.736;2023-08-06T01:13:35;1.67;;;1.58;;
8819;SDS011;4446;50.876;4.736;2023-08-06T01:16:12;1.60;;;1.50;;
8819;SDS011;4446;50.876;4.736;2023-08-06T01:18:42;2.42;;;1.50;;
8819;SDS011;4446;50.876;4.736;2023-08-06T01:21:13;1.73;;;1.60;;
8819;SDS011;4446;50.876;4.736;2023-08-06T01:23:40;2.03;;;1.75;;
8819;SDS011;4446;50.876;4.736;2023-08-06T01:26:10;2.95;;;2.20;;
8819;SDS011;4446;50.876;4.736;2023-08-06T01:28:43;2.20;;;2.00;;
8819;SDS011;4446;50.876;4.736;2023-08-06T01:31:15;2.85;;;1.95;;
8819;SDS011;4446;50.876;4.736;2023-08-06T01:33:48;3.35;;;1.98;;
8819;SDS011;4446;50.876;4.736;2023-08-06T01:36:18;2.38;;;1.90;;
8819;SDS011;4446;50.876;4.736;2023-08-06T01:38:46;3.33;;;2.00;;
8819;SDS011;4446;50.876;4.736;2023-08-06T01:41:13;3.28;;;1.80;;
8819;SDS011;4446;50.876;4.736;2023-08-06T01:43:40;3.33;;;2.03;;
8819;SDS011;4446;50.876;4.736;2023-08-06T01:46:07;3.00;;;2.17;;
8819;SDS011;4446;50.876;4.736;2023-08-06T01:48:34;4.00;;;1.92;;
8819;SDS011;4446;50.876;4.736;2023-08-06T01:51:03;4.50;;;2.20;;
8819;SDS011;4446;50.876;4.736;2023-08-06T01:53:32;2.70;;;2.30;;
8819;SDS011;4446;50.876;4.736;2023-08-06T01:55:59;2.60;;;2.35;;
8819;SDS011;4446;50.876;4.736;2023-08-06T01:58:26;2.70;;;2.35;;
8819;SDS011;4446;50.876;4.736;2023-08-06T02:00:53;8.25;;;2.90;;
8819;SDS011;4446;50.876;4.736;2023-08-06T02:03:20;3.67;;;2.38;;
8819;SDS011;4446;50.876;4.736;2023-08-06T02:05:47;4.60;;;2.53;;
8819;SDS011;4446;50.876;4.736;2023-08-06T02:08:14;2.75;;;2.42;;
8819;SDS011;4446;50.876;4.736;2023-08-06T02:10:42;13.40;;;3.17;;
8819;SDS011;4446;50.876;4.736;2023-08-06T02:13:09;2.53;;;2.33;;
8819;SDS011;4446;50.876;4.736;2023-08-06T02:15:41;4.95;;;3.05;;
8819;SDS011;4446;50.876;4.736;2023-08-06T02:18:08;4.53;;;2.88;;
8819;SDS011;4446;50.876;4.736;2023-08-06T02:20:36;4.25;;;2.63;;
8819;SDS011;4446;50.876;4.736;2023-08-06T02:23:03;7.57;;;3.78;;
8819;SDS011;4446;50.876;4.736;2023-08-06T02:25:30;4.55;;;3.33;;
8819;SDS011;4446;50.876;4.736;2023-08-06T02:27:58;5.20;;;3.58;;
8819;SDS011;4446;50.876;4.736;2023-08-06T02:30:25;4.85;;;3.15;;
8819;SDS011;4446;50.876;4.736;2023-08-06T02:32:52;4.97;;;3.30;;
8819;SDS011;4446;50.876;4.736;2023-08-06T02:35:19;5.00;;;3.40;;
8819;SDS011;4446;50.876;4.736;2023-08-06T02:37:46;4.25;;;3.17;;
8819;SDS011;4446;50.876;4.736;2023-08-06T02:40:13;6.20;;;3.53;;
8819;SDS011;4446;50.876;4.736;2023-08-06T02:42:40;4.80;;;3.55;;
8819;SDS011;4446;50.876;4.736;2023-08-06T02:45:09;5.90;;;3.80;;
8819;SDS011;4446;50.876;4.736;2023-08-06T02:47:36;6.05;;;3.10;;
8819;SDS011;4446;50.876;4.736;2023-08-06T02:50:04;5.85;;;3.90;;
8819;SDS011;4446;50.876;4.736;2023-08-06T02:52:31;5.38;;;3.53;;
8819;SDS011;4446;50.876;4.736;2023-08-06T02:54:59;4.55;;;3.45;;
8819;SDS011;4446;50.876;4.736;2023-08-06T02:57:26;5.13;;;3.22;;
8819;SDS011;4446;50.876;4.736;2023-08-06T02:59:53;6.75;;;3.63;;
8819;SDS011;4446;50.876;4.736;2023-08-06T03:02:21;4.07;;;3.55;;
8819;SDS011;4446;50.876;4.736;2023-08-06T03:04:48;5.28;;;3.45;;
8819;SDS011;4446;50.876;4.736;2023-08-06T03:07:16;4.18;;;3.33;;
8819;SDS011;4446;50.876;4.736;2023-08-06T03:09:43;3.38;;;3.00;;
8819;SDS011;4446;50.876;4.736;2023-08-06T03:12:10;4.63;;;3.30;;
8819;SDS011;4446;50.876;4.736;2023-08-06T03:14:38;4.82;;;3.25;;
8819;SDS011;4446;50.876;4.736;2023-08-06T03:17:05;3.92;;;3.10;;
8819;SDS011;4446;50.876;4.736;2023-08-06T03:19:33;4.95;;;3.17;;
8819;SDS011;4446;50.876;4.736;2023-08-06T03:22:00;4.45;;;3.10;;
8819;SDS011;4446;50.876;4.736;2023-08-06T03:24:27;5.43;;;3.50;;
8819;SDS011;4446;50.876;4.736;2023-08-06T03:26:54;3.33;;;2.60;;
8819;SDS011;4446;50.876;4.736;2023-08-06T03:29:21;6.35;;;3.10;;
8819;SDS011;4446;50.876;4.736;2023-08-06T03:31:48;3.67;;;3.28;;
8819;SDS011;4446;50.876;4.736;2023-08-06T03:34:15;6.07;;;3.42;;
8819;SDS011;4446;50.876;4.736;2023-08-06T03:36:44;4.10;;;3.25;;
8819;SDS011;4446;50.876;4.736;2023-08-06T03:39:11;5.65;;;3.30;;
8819;SDS011;4446;50.876;4.736;2023-08-06T03:41:39;4.35;;;3.22;;
8819;SDS011;4446;50.876;4.736;2023-08-06T03:44:06;5.38;;;3.70;;
8819;SDS011;4446;50.876;4.736;2023-08-06T03:46:33;4.25;;;3.20;;
8819;SDS011;4446;50.876;4.736;2023-08-06T03:49:00;5.47;;;3.90;;
8819;SDS011;4446;50.876;4.736;2023-08-06T03:51:27;7.32;;;3.90;;
8819;SDS011;4446;50.876;4.736;2023-08-06T03:53:56;6.30;;;3.95;;
8819;SDS011;4446;50.876;4.736;2023-08-06T03:56:23;8.13;;;3.67;;
8819;SDS011;4446;50.876;4.736;2023-08-06T03:58:50;5.78;;;4.40;;
8819;SDS011;4446;50.876;4.736;2023-08-06T04:01:17;7.00;;;4.57;;
8819;SDS011;4446;50.876;4.736;2023-08-06T04:03:44;8.63;;;4.47;;
8819;SDS011;4446;50.876;4.736;2023-08-06T04:06:11;9.27;;;4.93;;
8819;SDS011;4446;50.876;4.736;2023-08-06T04:08:38;8.63;;;5.13;;
8819;SDS011;4446;50.876;4.736;2023-08-06T04:11:07;9.25;;;5.13;;
8819;SDS011;4446;50.876;4.736;2023-08-06T04:13:34;7.15;;;4.65;;
8819;SDS011;4446;50.876;4.736;2023-08-06T04:16:01;10.02;;;5.70;;
8819;SDS011;4446;50.876;4.736;2023-08-06T04:18:28;8.23;;;4.85;;
8819;SDS011;4446;50.876;4.736;2023-08-06T04:20:56;9.80;;;4.82;;
8819;SDS011;4446;50.876;4.736;2023-08-06T04:23:23;12.80;;;5.88;;
8819;SDS011;4446;50.876;4.736;2023-08-06T04:25:50;12.05;;;5.47;;
8819;SDS011;4446;50.876;4.736;2023-08-06T04:28:19;10.15;;;5.35;;
8819;SDS011;4446;50.876;4.736;2023-08-06T04:30:46;10.38;;;5.60;;
8819;SDS011;4446;50.876;4.736;2023-08-06T04:33:13;12.00;;;5.95;;
8819;SDS011;4446;50.876;4.736;2023-08-06T04:35:40;9.25;;;5.10;;
8819;SDS011;4446;50.876;4.736;2023-08-06T04:38:07;8.65;;;5.00;;
8819;SDS011;4446;50.876;4.736;2023-08-06T04:40:34;8.73;;;4.65;;
8819;SDS011;4446;50.876;4.736;2023-08-06T04:43:01;8.40;;;4.60;;
8819;SDS011;4446;50.876;4.736;2023-08-06T04:45:30;6.80;;;4.20;;
8819;SDS011;4446;50.876;4.736;2023-08-06T04:47:57;5.65;;;3.42;;
8819;SDS011;4446;50.876;4.736;2023-08-06T04:50:24;3.83;;;2.53;;
8819;SDS011;4446;50.876;4.736;2023-08-06T04:52:51;4.22;;;2.47;;
8819;SDS011;4446;50.876;4.736;2023-08-06T04:55:18;2.60;;;2.08;;
8819;SDS011;4446;50.876;4.736;2023-08-06T04:57:45;1.75;;;1.50;;
8819;SDS011;4446;50.876;4.736;2023-08-06T05:00:12;1.35;;;1.25;;
8819;SDS011;4446;50.876;4.736;2023-08-06T05:02:41;1.75;;;1.20;;
8819;SDS011;4446;50.876;4.736;2023-08-06T05:05:08;1.73;;;1.20;;
8819;SDS011;4446;50.876;4.736;2023-08-06T05:07:35;1.33;;;1.20;;
8819;SDS011;4446;50.876;4.736;2023-08-06T05:10:02;1.77;;;1.38;;
8819;SDS011;4446;50.876;4.736;2023-08-06T05:12:29;1.60;;;1.50;;
8819;SDS011;4446;50.876;4.736;2023-08-06T05:14:56;2.72;;;1.73;;
8819;SDS011;4446;50.876;4.736;2023-08-06T05:17:23;2.70;;;2.50;;
8819;SDS011;4446;50.876;4.736;2023-08-06T05:19:52;6.15;;;3.10;;
8819;SDS011;4446;50.876;4.736;2023-08-06T05:22:18;4.95;;;3.55;;
8819;SDS011;4446;50.876;4.736;2023-08-06T05:24:45;5.70;;;4.03;;
8819;SDS011;4446;50.876;4.736;2023-08-06T05:27:12;6.80;;;4.70;;
8819;SDS011;4446;50.876;4.736;2023-08-06T05:29:40;5.15;;;4.28;;
8819;SDS011;4446;50.876;4.736;2023-08-06T05:32:07;5.63;;;4.55;;
8819;SDS011;4446;50.876;4.736;2023-08-06T05:34:34;9.48;;;5.97;;
8819;SDS011;4446;50.876;4.736;2023-08-06T05:37:03;5.80;;;4.32;;
8819;SDS011;4446;50.876;4.736;2023-08-06T05:39:30;5.97;;;4.15;;
8819;SDS011;4446;50.876;4.736;2023-08-06T05:41:57;5.88;;;4.18;;
8819;SDS011;4446;50.876;4.736;2023-08-06T05:44:24;4.72;;;3.75;;
8819;SDS011;4446;50.876;4.736;2023-08-06T05:46:51;6.15;;;3.60;;
8819;SDS011;4446;50.876;4.736;2023-08-06T05:49:19;3.70;;;3.28;;
8819;SDS011;4446;50.876;4.736;2023-08-06T05:51:46;3.20;;;2.67;;
8819;SDS011;4446;50.876;4.736;2023-08-06T05:54:14;4.30;;;2.72;;
8819;SDS011;4446;50.876;4.736;2023-08-06T05:56:42;2.97;;;2.70;;
8819;SDS011;4446;50.876;4.736;2023-08-06T05:59:08;4.53;;;2.33;;
8819;SDS011;4446;50.876;4.736;2023-08-06T06:01:36;3.47;;;2.30;;
8819;SDS011;4446;50.876;4.736;2023-08-06T06:04:03;3.03;;;2.25;;
8819;SDS011;4446;50.876;4.736;2023-08-06T06:06:30;2.30;;;2.00;;
8819;SDS011;4446;50.876;4.736;2023-08-06T06:08:57;4.35;;;2.03;;
8819;SDS011;4446;50.876;4.736;2023-08-06T06:11:26;4.35;;;2.10;;
8819;SDS011;4446;50.876;4.736;2023-08-06T06:13:53;3.25;;;2.25;;
8819;SDS011;4446;50.876;4.736;2023-08-06T06:16:20;3.72;;;2.08;;
8819;SDS011;4446;50.876;4.736;2023-08-06T06:18:47;2.30;;;2.00;;
8819;SDS011;4446;50.876;4.736;2023-08-06T06:21:14;5.28;;;2.10;;
8819;SDS011;4446;50.876;4.736;2023-08-06T06:23:41;6.10;;;2.20;;
8819;SDS011;4446;50.876;4.736;2023-08-06T06:26:08;3.13;;;2.05;;
8819;SDS011;4446;50.876;4.736;2023-08-06T06:28:37;2.63;;;1.83;;
8819;SDS011;4446;50.876;4.736;2023-08-06T06:31:04;4.03;;;2.03;;
8819;SDS011;4446;50.876;4.736;2023-08-06T06:33:31;3.08;;;1.95;;
8819;SDS011;4446;50.876;4.736;2023-08-06T06:35:58;2.95;;;2.08;;
8819;SDS011;4446;50.876;4.736;2023-08-06T06:38:25;4.65;;;2.17;;
8819;SDS011;4446;50.876;4.736;2023-08-06T06:40:55;2.88;;;2.53;;
8819;SDS011;4446;50.876;4.736;2023-08-06T06:43:23;5.57;;;2.40;;
8819;SDS011;4446;50.876;4.736;2023-08-06T06:45:53;5.63;;;2.17;;
8819;SDS011;4446;50.876;4.736;2023-08-06T06:48:22;5.00;;;2.20;;
8819;SDS011;4446;50.876;4.736;2023-08-06T06:50:49;3.35;;;1.95;;
8819;SDS011;4446;50.876;4.736;2023-08-06T06:53:16;2.38;;;1.85;;
8819;SDS011;4446;50.876;4.736;2023-08-06T06:55:43;4.20;;;2.00;;
8819;SDS011;4446;50.876;4.736;2023-08-06T06:58:10;4.93;;;2.10;;
8819;SDS011;4446;50.876;4.736;2023-08-06T07:00:38;5.57;;;2.30;;
8819;SDS011;4446;50.876;4.736;2023-08-06T07:03:06;4.43;;;2.20;;
8819;SDS011;4446;50.876;4.736;2023-08-06T07:05:33;3.95;;;1.95;;
8819;SDS011;4446;50.876;4.736;2023-08-06T07:08:00;2.65;;;1.90;;
8819;SDS011;4446;50.876;4.736;2023-08-06T07:10:28;4.50;;;2.10;;
8819;SDS011;4446;50.876;4.736;2023-08-06T07:12:55;3.85;;;2.08;;
8819;SDS011;4446;50.876;4.736;2023-08-06T07:15:22;3.30;;;2.05;;
8819;SDS011;4446;50.876;4.736;2023-08-06T07:17:49;6.90;;;2.60;;
8819;SDS011;4446;50.876;4.736;2023-08-06T07:20:17;5.40;;;2.30;;
8819;SDS011;4446;50.876;4.736;2023-08-06T07:22:44;3.63;;;2.33;;
8819;SDS011;4446;50.876;4.736;2023-08-06T07:25:11;3.72;;;2.25;;
8819;SDS011;4446;50.876;4.736;2023-08-06T07:27:38;5.82;;;2.20;;
8819;SDS011;4446;50.876;4.736;2023-08-06T07:30:06;5.30;;;2.45;;
8819;SDS011;4446;50.876;4.736;2023-08-06T07:32:33;3.30;;;2.42;;
8819;SDS011;4446;50.876;4.736;2023-08-06T07:35:00;4.28;;;2.38;;
8819;SDS011;4446;50.876;4.736;2023-08-06T07:37:29;7.95;;;2.45;;
8819;SDS011;4446;50.876;4.736;2023-08-06T07:39:56;3.45;;;2.10;;
8819;SDS011;4446;50.876;4.736;2023-08-06T07:42:23;3.50;;;1.90;;
8819;SDS011;4446;50.876;4.736;2023-08-06T07:44:51;6.43;;;2.30;;
8819;SDS011;4446;50.876;4.736;2023-08-06T07:47:18;5.93;;;2.10;;
8819;SDS011;4446;50.876;4.736;2023-08-06T07:49:46;6.13;;;2.05;;
8819;SDS011;4446;50.876;4.736;2023-08-06T07:52:13;3.80;;;1.98;;
8819;SDS011;4446;50.876;4.736;2023-08-06T07:54:41;4.05;;;1.70;;
8819;SDS011;4446;50.876;4.736;2023-08-06T07:57:08;2.42;;;1.65;;
8819;SDS011;4446;50.876;4.736;2023-08-06T07:59:36;1.60;;;1.50;;
8819;SDS011;4446;50.876;4.736;2023-08-06T08:02:03;5.35;;;1.70;;
8819;SDS011;4446;50.876;4.736;2023-08-06T08:04:31;3.53;;;1.23;;
8819;SDS011;4446;50.876;4.736;2023-08-06T08:06:58;1.92;;;1.55;;
8819;SDS011;4446;50.876;4.736;2023-08-06T08:09:25;1.92;;;1.20;;
8819;SDS011;4446;50.876;4.736;2023-08-06T08:11:54;4.15;;;1.17;;
8819;SDS011;4446;50.876;4.736;2023-08-06T08:14:21;4.00;;;1.30;;
8819;SDS011;4446;50.876;4.736;2023-08-06T08:16:48;3.22;;;1.60;;
8819;SDS011;4446;50.876;4.736;2023-08-06T08:19:15;4.70;;;2.28;;
8819;SDS011;4446;50.876;4.736;2023-08-06T08:21:42;5.65;;;1.38;;
8819;SDS011;4446;50.876;4.736;2023-08-06T08:24:09;3.53;;;1.35;;
8819;SDS011;4446;50.876;4.736;2023-08-06T08:26:36;3.70;;;1.38;;
8819;SDS011;4446;50.876;4.736;2023-08-06T08:29:04;2.30;;;1.35;;
8819;SDS011;4446;50.876;4.736;2023-08-06T08:31:31;4.28;;;1.60;;
8819;SDS011;4446;50.876;4.736;2023-08-06T08:34:04;4.10;;;1.30;;
8819;SDS011;4446;50.876;4.736;2023-08-06T08:36:31;5.25;;;2.08;;
8819;SDS011;4446;50.876;4.736;2023-08-06T08:38:58;4.55;;;1.40;;
8819;SDS011;4446;50.876;4.736;2023-08-06T08:41:25;3.38;;;1.40;;
8819;SDS011;4446;50.876;4.736;2023-08-06T08:43:54;2.88;;;1.33;;
8819;SDS011;4446;50.876;4.736;2023-08-06T08:46:26;2.88;;;1.52;;
8819;SDS011;4446;50.876;4.736;2023-08-06T08:48:55;4.78;;;1.73;;
8819;SDS011;4446;50.876;4.736;2023-08-06T08:51:23;3.83;;;1.50;;
8819;SDS011;4446;50.876;4.736;2023-08-06T08:53:50;2.83;;;2.10;;
8819;SDS011;4446;50.876;4.736;2023-08-06T08:56:21;3.30;;;1.58;;
8819;SDS011;4446;50.876;4.736;2023-08-06T08:58:48;5.35;;;1.50;;
8819;SDS011;4446;50.876;4.736;2023-08-06T09:01:15;5.40;;;1.60;;
8819;SDS011;4446;50.876;4.736;2023-08-06T09:03:44;4.10;;;1.50;;
8819;SDS011;4446;50.876;4.736;2023-08-06T09:06:11;2.53;;;1.52;;
8819;SDS011;4446;50.876;4.736;2023-08-06T09:08:41;3.53;;;1.83;;
8819;SDS011;4446;50.876;4.736;2023-08-06T09:11:13;3.75;;;2.05;;
8819;SDS011;4446;50.876;4.736;2023-08-06T09:13:41;4.75;;;1.58;;
8819;SDS011;4446;50.876;4.736;2023-08-06T09:16:08;2.72;;;1.30;;
8819;SDS011;4446;50.876;4.736;2023-08-06T09:18:35;2.63;;;1.50;;
8819;SDS011;4446;50.876;4.736;2023-08-06T09:21:07;5.07;;;1.63;;
8819;SDS011;4446;50.876;4.736;2023-08-06T09:23:41;3.65;;;1.45;;
8819;SDS011;4446;50.876;4.736;2023-08-06T09:26:11;2.55;;;1.30;;
8819;SDS011;4446;50.876;4.736;2023-08-06T09:28:38;3.67;;;1.60;;
8819;SDS011;4446;50.876;4.736;2023-08-06T09:31:08;4.03;;;1.30;;
8819;SDS011;4446;50.876;4.736;2023-08-06T09:33:36;4.05;;;1.85;;
8819;SDS011;4446;50.876;4.736;2023-08-06T09:36:09;4.07;;;1.42;;
8819;SDS011;4446;50.876;4.736;2023-08-06T09:38:40;6.18;;;1.50;;
8819;SDS011;4446;50.876;4.736;2023-08-06T09:41:07;2.50;;;1.40;;
8819;SDS011;4446;50.876;4.736;2023-08-06T09:43:41;4.43;;;1.48;;
8819;SDS011;4446;50.876;4.736;2023-08-06T09:46:12;5.05;;;1.88;;
8819;SDS011;4446;50.876;4.736;2023-08-06T09:48:44;3.65;;;1.55;;
8819;SDS011;4446;50.876;4.736;2023-08-06T09:51:13;3.65;;;1.30;;
8819;SDS011;4446;50.876;4.736;2023-08-06T09:53:40;1.40;;;1.30;;
8819;SDS011;4446;50.876;4.736;2023-08-06T09:56:08;2.20;;;1.30;;
8819;SDS011;4446;50.876;4.736;2023-08-06T09:58:37;4.47;;;1.65;;
8819;SDS011;4446;50.876;4.736;2023-08-06T10:01:05;2.38;;;1.42;;
8819;SDS011;4446;50.876;4.736;2023-08-06T10:03:33;3.22;;;1.40;;
8819;SDS011;4446;50.876;4.736;2023-08-06T10:06:01;1.45;;;1.30;;
8819;SDS011;4446;50.876;4.736;2023-08-06T10:08:33;2.03;;;1.27;;
8819;SDS011;4446;50.876;4.736;2023-08-06T10:11:00;2.33;;;1.40;;
8819;SDS011;4446;50.876;4.736;2023-08-06T10:13:30;2.00;;;1.40;;
8819;SDS011;4446;50.876;4.736;2023-08-06T10:15:59;2.85;;;1.40;;
8819;SDS011;4446;50.876;4.736;2023-08-06T10:18:27;2.85;;;1.30;;
8819;SDS011;4446;50.876;4.736;2023-08-06T10:20:55;3.83;;;1.23;;
8819;SDS011;4446;50.876;4.736;2023-08-06T10:23:33;1.85;;;1.40;;
8819;SDS011;4446;50.876;4.736;2023-08-06T10:26:03;2.13;;;1.20;;
8819;SDS011;4446;50.876;4.736;2023-08-06T10:28:33;1.50;;;1.40;;
8819;SDS011;4446;50.876;4.736;2023-08-06T10:31:01;2.35;;;2.05;;
8819;SDS011;4446;50.876;4.736;2023-08-06T10:33:39;5.82;;;1.83;;
8819;SDS011;4446;50.876;4.736;2023-08-06T10:36:10;2.60;;;1.63;;
8819;SDS011;4446;50.876;4.736;2023-08-06T10:38:46;3.88;;;1.48;;
8819;SDS011;4446;50.876;4.736;2023-08-06T10:41:15;4.97;;;1.60;;
8819;SDS011;4446;50.876;4.736;2023-08-06T10:43:43;1.48;;;1.38;;
8819;SDS011;4446;50.876;4.736;2023-08-06T10:46:21;3.25;;;1.70;;
8819;SDS011;4446;50.876;4.736;2023-08-06T10:48:49;1.85;;;1.50;;
8819;SDS011;4446;50.876;4.736;2023-08-06T10:51:17;2.45;;;1.45;;
8819;SDS011;4446;50.876;4.736;2023-08-06T10:53:44;6.05;;;1.88;;
8819;SDS011;4446;50.876;4.736;2023-08-06T10:56:13;2.63;;;1.50;;
8819;SDS011;4446;50.876;4.736;2023-08-06T10:58:42;3.80;;;1.40;;
8819;SDS011;4446;50.876;4.736;2023-08-06T11:01:09;6.18;;;1.73;;
8819;SDS011;4446;50.876;4.736;2023-08-06T11:03:37;3.55;;;1.90;;
8819;SDS011;4446;50.876;4.736;2023-08-06T11:06:06;2.53;;;1.35;;
8819;SDS011;4446;50.876;4.736;2023-08-06T11:08:34;5.35;;;1.70;;
8819;SDS011;4446;50.876;4.736;2023-08-06T11:11:09;3.88;;;1.73;;
8819;SDS011;4446;50.876;4.736;2023-08-06T11:13:38;4.07;;;1.70;;
8819;SDS011;4446;50.876;4.736;2023-08-06T11:16:05;3.33;;;1.42;;
8819;SDS011;4446;50.876;4.736;2023-08-06T11:18:32;2.42;;;1.70;;
8819;SDS011;4446;50.876;4.736;2023-08-06T11:21:00;3.97;;;1.77;;
8819;SDS011;4446;50.876;4.736;2023-08-06T11:23:27;5.18;;;1.70;;
8819;SDS011;4446;50.876;4.736;2023-08-06T11:25:54;2.30;;;1.50;;
8819;SDS011;4446;50.876;4.736;2023-08-06T11:28:23;2.42;;;1.42;;
8819;SDS011;4446;50.876;4.736;2023-08-06T11:30:51;2.20;;;1.45;;
8819;SDS011;4446;50.876;4.736;2023-08-06T11:33:19;4.10;;;1.92;;
8819;SDS011;4446;50.876;4.736;2023-08-06T11:35:48;6.63;;;2.40;;
8819;SDS011;4446;50.876;4.736;2023-08-06T11:38:15;5.07;;;2.08;;
8819;SDS011;4446;50.876;4.736;2023-08-06T11:40:43;4.55;;;2.33;;
8819;SDS011;4446;50.876;4.736;2023-08-06T11:43:11;2.85;;;2.00;;
8819;SDS011;4446;50.876;4.736;2023-08-06T11:45:40;2.67;;;1.88;;
8819;SDS011;4446;50.876;4.736;2023-08-06T11:48:07;3.72;;;1.52;;
8819;SDS011;4446;50.876;4.736;2023-08-06T11:50:36;2.10;;;1.55;;
8819;SDS011;4446;50.876;4.736;2023-08-06T11:53:04;2.42;;;1.58;;
8819;SDS011;4446;50.876;4.736;2023-08-06T11:55:32;3.92;;;1.75;;
8819;SDS011;4446;50.876;4.736;2023-08-06T11:58:02;3.08;;;1.58;;
8819;SDS011;4446;50.876;4.736;2023-08-06T12:00:30;4.40;;;2.25;;
8819;SDS011;4446;50.876;4.736;2023-08-06T12:02:59;4.65;;;1.90;;
8819;SDS011;4446;50.876;4.736;2023-08-06T12:05:29;4.63;;;2.40;;
8819;SDS011;4446;50.876;4.736;2023-08-06T12:07:58;3.58;;;1.90;;
8819;SDS011;4446;50.876;4.736;2023-08-06T12:10:27;3.70;;;1.80;;
8819;SDS011;4446;50.876;4.736;2023-08-06T12:12:55;2.42;;;1.60;;
8819;SDS011;4446;50.876;4.736;2023-08-06T12:15:22;2.72;;;1.45;;
8819;SDS011;4446;50.876;4.736;2023-08-06T12:17:50;5.55;;;1.65;;
8819;SDS011;4446;50.876;4.736;2023-08-06T12:20:18;4.63;;;1.63;;
8819;SDS011;4446;50.876;4.736;2023-08-06T12:22:45;4.05;;;1.95;;
8819;SDS011;4446;50.876;4.736;2023-08-06T12:25:13;3.22;;;1.52;;
8819;SDS011;4446;50.876;4.736;2023-08-06T12:27:40;5.63;;;2.08;;
8819;SDS011;4446;50.876;4.736;2023-08-06T12:30:09;3.42;;;1.77;;
8819;SDS011;4446;50.876;4.736;2023-08-06T12:32:36;2.67;;;1.10;;
8819;SDS011;4446;50.876;4.736;2023-08-06T12:35:04;4.70;;;1.35;;
8819;SDS011;4446;50.876;4.736;2023-08-06T12:37:34;2.40;;;1.63;;
8819;SDS011;4446;50.876;4.736;2023-08-06T12:40:03;5.20;;;1.70;;
8819;SDS011;4446;50.876;4.736;2023-08-06T12:42:31;2.40;;;1.58;;
8819;SDS011;4446;50.876;4.736;2023-08-06T12:44:58;1.48;;;1.35;;
8819;SDS011;4446;50.876;4.736;2023-08-06T12:47:25;1.85;;;1.40;;
8819;SDS011;4446;50.876;4.736;2023-08-06T12:49:53;2.88;;;1.45;;
8819;SDS011;4446;50.876;4.736;2023-08-06T12:52:20;2.53;;;1.45;;
8819;SDS011;4446;50.876;4.736;2023-08-06T12:54:48;6.18;;;1.65;;
8819;SDS011;4446;50.876;4.736;2023-08-06T12:57:15;6.38;;;2.03;;
8819;SDS011;4446;50.876;4.736;2023-08-06T12:59:42;3.10;;;1.52;;
8819;SDS011;4446;50.876;4.736;2023-08-06T13:02:09;3.72;;;1.25;;
8819;SDS011;4446;50.876;4.736;2023-08-06T13:04:36;3.20;;;1.30;;
8819;SDS011;4446;50.876;4.736;2023-08-06T13:07:04;2.20;;;1.30;;
8819;SDS011;4446;50.876;4.736;2023-08-06T13:09:32;2.70;;;1.70;;
8819;SDS011;4446;50.876;4.736;2023-08-06T13:12:00;3.85;;;1.70;;
8819;SDS011;4446;50.876;4.736;2023-08-06T13:14:30;2.60;;;1.38;;
8819;SDS011;4446;50.876;4.736;2023-08-06T13:16:58;7.03;;;1.83;;
8819;SDS011;4446;50.876;4.736;2023-08-06T13:19:25;3.25;;;1.40;;
8819;SDS011;4446;50.876;4.736;2023-08-06T13:22:02;2.20;;;1.42;;
8819;SDS011;4446;50.876;4.736;2023-08-06T13:24:31;2.90;;;1.42;;
8819;SDS011;4446;50.876;4.736;2023-08-06T13:27:01;3.13;;;1.17;;
8819;SDS011;4446;50.876;4.736;2023-08-06T13:29:28;4.53;;;1.38;;
8819;SDS011;4446;50.876;4.736;2023-08-06T13:31:55;3.08;;;1.50;;
8819;SDS011;4446;50.876;4.736;2023-08-06T13:34:22;3.55;;;1.38;;
8819;SDS011;4446;50.876;4.736;2023-08-06T13:36:49;4.57;;;1.58;;
8819;SDS011;4446;50.876;4.736;2023-08-06T13:39:16;3.67;;;1.52;;
8819;SDS011;4446;50.876;4.736;2023-08-06T13:41:44;4.30;;;1.65;;
8819;SDS011;4446;50.876;4.736;2023-08-06T13:44:13;4.15;;;1.60;;
8819;SDS011;4446;50.876;4.736;2023-08-06T13:46:41;4.57;;;1.80;;
8819;SDS011;4446;50.876;4.736;2023-08-06T13:49:08;4.38;;;1.50;;
8819;SDS011;4446;50.876;4.736;2023-08-06T13:51:35;4.90;;;1.58;;
8819;SDS011;4446;50.876;4.736;2023-08-06T13:54:03;4.43;;;1.35;;
8819;SDS011;4446;50.876;4.736;2023-08-06T13:56:31;2.42;;;1.40;;
8819;SDS011;4446;50.876;4.736;2023-08-06T13:58:59;4.55;;;1.52;;
8819;SDS011;4446;50.876;4.736;2023-08-06T14:01:27;2.35;;;1.08;;
8819;SDS011;4446;50.876;4.736;2023-08-06T14:03:54;2.78;;;1.13;;
8819;SDS011;4446;50.876;4.736;2023-08-06T14:06:21;3.38;;;1.20;;
8819;SDS011;4446;50.876;4.736;2023-08-06T14:08:48;2.50;;;1.55;;
8819;SDS011;4446;50.876;4.736;2023-08-06T14:11:16;2.55;;;1.40;;
8819;SDS011;4446;50.876;4.736;2023-08-06T14:13:43;3.45;;;1.10;;
8819;SDS011;4446;50.876;4.736;2023-08-06T14:16:10;3.70;;;1.20;;
8819;SDS011;4446;50.876;4.736;2023-08-06T14:18:39;2.65;;;1.30;;
8819;SDS011;4446;50.876;4.736;2023-08-06T14:21:06;3.80;;;1.25;;
8819;SDS011;4446;50.876;4.736;2023-08-06T14:23:33;2.03;;;1.58;;
8819;SDS011;4446;50.876;4.736;2023-08-06T14:26:00;3.10;;;1.70;;
8819;SDS011;4446;50.876;4.736;2023-08-06T14:28:27;4.20;;;2.25;;
8819;SDS011;4446;50.876;4.736;2023-08-06T14:30:54;4.90;;;2.15;;
8819;SDS011;4446;50.876;4.736;2023-08-06T14:33:22;2.63;;;2.15;;
8819;SDS011;4446;50.876;4.736;2023-08-06T14:35:50;2.55;;;1.80;;
8819;SDS011;4446;50.876;4.736;2023-08-06T14:38:17;4.40;;;2.22;;
8819;SDS011;4446;50.876;4.736;2023-08-06T14:40:44;3.15;;;2.03;;
8819;SDS011;4446;50.876;4.736;2023-08-06T14:43:11;3.20;;;2.20;;
8819;SDS011;4446;50.876;4.736;2023-08-06T14:45:38;2.92;;;1.90;;
8819;SDS011;4446;50.876;4.736;2023-08-06T14:48:06;4.60;;;2.17;;
8819;SDS011;4446;50.876;4.736;2023-08-06T14:50:33;2.40;;;1.98;;
8819;SDS011;4446;50.876;4.736;2023-08-06T14:53:02;5.25;;;2.05;;
8819;SDS011;4446;50.876;4.736;2023-08-06T14:55:29;4.50;;;2.25;;
8819;SDS011;4446;50.876;4.736;2023-08-06T14:57:56;6.32;;;2.58;;
8819;SDS011;4446;50.876;4.736;2023-08-06T15:00:25;3.97;;;2.40;;
8819;SDS011;4446;50.876;4.736;2023-08-06T15:02:52;6.85;;;2.45;;
8819;SDS011;4446;50.876;4.736;2023-08-06T15:05:19;4.55;;;2.20;;
8819;SDS011;4446;50.876;4.736;2023-08-06T15:07:46;5.63;;;2.97;;
8819;SDS011;4446;50.876;4.736;2023-08-06T15:10:14;3.88;;;2.38;;
8819;SDS011;4446;50.876;4.736;2023-08-06T15:12:41;5.68;;;2.42;;
8819;SDS011;4446;50.876;4.736;2023-08-06T15:15:09;4.93;;;2.80;;
8819;SDS011;4446;50.876;4.736;2023-08-06T15:17:36;2.70;;;2.35;;
8819;SDS011;4446;50.876;4.736;2023-08-06T15:20:04;6.07;;;2.25;;